CDU weather

Camden Airport
New South Wales, Australia

Public forecast

Using degrees Celsius for public forecast. Weather courtesy of forecast.io.

METAR (pilot weather report)

Closest report is Sydney Kingsford Smith International Airport, 25.0 nm (46.4 km) ENE. Retrieved 2019/01/24 11:00 UTC (10 minutes ago):

YSSY 241100Z 17006KT 9999 BKN045 23/21 Q1016 NOSIG

TAF (pilot weather forecast)

Closest forecast is Sydney Kingsford Smith International Airport, 25.0 nm (46.4 km) ENE. Retrieved 2019/01/24 06:39 UTC (5 hours ago):

TAF YSSY 240505Z 2406/2512 18014KT 9999 SCT015 BKN020 FM241600 32006KT 9999 SCT020 FM242200 34006KT 9999 FEW020 FM250000 04014KT CAVOK FM250400 04018G28KT CAVOK FM251000 03012KT CAVOK